Time;durP1;ratioP1;P1;durP2;ratioP2;P2;SDS_P1;SDS_P2;PMS_P1;PMS_P2;Temp;Humidity;BMP_temperature;BMP_pressure;BME280_temperature;BME280_humidity;BME280_pressure;Samples;Min_cycle;Max_cycle;Signal;HPM_P1;HPM_P2
2021/07/01 00:00:26;;;;;;;4.05;2.90;;;18.70;67.00;;;;;;4928342;29;20040;-82
2021/07/01 00:02:52;;;;;;;3.25;2.67;;;18.70;67.10;;;;;;4930155;29;20043;-82
2021/07/01 00:05:18;;;;;;;3.72;2.60;;;18.70;67.10;;;;;;4948461;28;20062;-83
2021/07/01 00:07:46;;;;;;;3.45;2.53;;;18.60;67.00;;;;;;4947270;28;20109;-82
2021/07/01 00:10:21;;;;;;;3.90;2.75;;;18.60;67.10;;;;;;4947722;28;20026;-83
2021/07/01 00:12:47;;;;;;;4.05;2.90;;;18.70;67.20;;;;;;4953452;29;20038;-83
2021/07/01 00:15:17;;;;;;;3.22;2.45;;;18.60;67.00;;;;;;4959740;28;20038;-82
2021/07/01 00:17:44;;;;;;;4.00;2.53;;;18.60;67.10;;;;;;4939062;28;20039;-83
2021/07/01 00:20:12;;;;;;;3.38;2.67;;;18.60;67.10;;;;;;4928368;29;20034;-83
2021/07/01 00:22:39;;;;;;;3.85;2.70;;;18.60;67.10;;;;;;4949981;28;20031;-83
2021/07/01 00:25:06;;;;;;;3.40;2.55;;;18.60;67.10;;;;;;4945909;29;20083;-83
2021/07/01 00:27:32;;;;;;;3.70;2.67;;;18.70;67.20;;;;;;4952226;28;20034;-82
2021/07/01 00:29:58;;;;;;;4.13;2.70;;;18.60;67.10;;;;;;4939071;28;20031;-83
2021/07/01 00:32:26;;;;;;;3.90;2.55;;;18.60;67.10;;;;;;4929687;29;20481;-82
2021/07/01 00:34:52;;;;;;;3.50;2.72;;;18.60;67.20;;;;;;4946295;29;20027;-82
2021/07/01 00:37:18;;;;;;;3.58;2.55;;;18.60;67.20;;;;;;4924737;29;20031;-83
2021/07/01 00:39:44;;;;;;;3.97;2.88;;;18.60;67.20;;;;;;4908933;28;20027;-83
2021/07/01 00:42:10;;;;;;;4.55;2.75;;;18.60;67.20;;;;;;4937679;29;20043;-82
2021/07/01 00:44:36;;;;;;;4.40;2.70;;;18.60;67.20;;;;;;4932697;29;20392;-82
2021/07/01 00:47:03;;;;;;;4.45;2.80;;;18.60;67.20;;;;;;4929428;28;20388;-82
2021/07/01 00:49:29;;;;;;;3.72;2.83;;;18.60;67.20;;;;;;4941574;29;20043;-81
2021/07/01 00:51:57;;;;;;;4.05;2.80;;;18.60;67.20;;;;;;4927352;29;20051;-82
2021/07/01 00:54:23;;;;;;;4.00;2.80;;;18.60;67.20;;;;;;4927834;29;20469;-82
2021/07/01 00:56:49;;;;;;;4.38;2.90;;;18.60;67.30;;;;;;4926537;29;20111;-82
2021/07/01 00:59:16;;;;;;;3.40;2.60;;;18.60;67.30;;;;;;4942802;28;20058;-82
2021/07/01 01:01:42;;;;;;;4.65;2.78;;;18.50;67.20;;;;;;4956262;28;20024;-82
2021/07/01 01:04:10;;;;;;;4.45;2.80;;;18.60;67.30;;;;;;4945496;29;20035;-83
2021/07/01 01:06:38;;;;;;;5.40;2.95;;;18.50;67.20;;;;;;4936472;29;20461;-82
2021/07/01 01:09:08;;;;;;;4.80;2.60;;;18.50;67.20;;;;;;4937006;29;20023;-82
2021/07/01 01:11:34;;;;;;;4.30;2.75;;;18.50;67.20;;;;;;4932218;28;20062;-82
2021/07/01 01:14:05;;;;;;;4.50;2.60;;;18.50;67.20;;;;;;4936071;29;20049;-81
2021/07/01 01:16:34;;;;;;;4.55;2.83;;;18.50;67.20;;;;;;4940435;29;20073;-81
2021/07/01 01:19:03;;;;;;;4.85;3.20;;;18.50;67.20;;;;;;4937790;29;20118;-82
2021/07/01 01:21:29;;;;;;;4.68;2.95;;;18.50;67.20;;;;;;4956533;28;20039;-82
2021/07/01 01:23:58;;;;;;;4.82;2.75;;;18.50;67.20;;;;;;4947702;28;20026;-82
2021/07/01 01:26:28;;;;;;;3.80;2.85;;;18.50;67.30;;;;;;4927482;29;20039;-81
2021/07/01 01:28:55;;;;;;;4.53;3.03;;;18.50;67.30;;;;;;4919693;28;20035;-83
2021/07/01 01:31:24;;;;;;;5.38;2.75;;;18.50;67.30;;;;;;4947238;29;20031;-83
2021/07/01 01:33:52;;;;;;;4.18;2.70;;;18.50;67.30;;;;;;4926287;29;20082;-83
2021/07/01 01:36:18;;;;;;;3.78;2.63;;;18.40;67.30;;;;;;4921181;29;20083;-82
2021/07/01 01:38:47;;;;;;;4.75;2.83;;;18.50;67.90;;;;;;4952371;28;20034;-82
2021/07/01 01:41:32;;;;;;;3.97;2.63;;;18.50;67.30;;;;;;4961014;28;20067;-82
2021/07/01 01:43:58;;;;;;;4.13;2.58;;;18.40;67.20;;;;;;4918843;29;20448;-82
2021/07/01 01:46:33;;;;;;;4.18;2.70;;;18.40;67.20;;;;;;4952857;28;20028;-83
2021/07/01 01:49:01;;;;;;;4.25;2.83;;;18.40;67.30;;;;;;4943958;28;20043;-83
2021/07/01 01:51:27;;;;;;;3.22;2.50;;;18.40;67.20;;;;;;4945048;28;20051;-82
2021/07/01 01:53:59;;;;;;;3.75;2.40;;;18.40;67.30;;;;;;4943149;28;20045;-83
2021/07/01 01:56:36;;;;;;;4.55;2.67;;;18.40;67.30;;;;;;4951455;28;20031;-83
2021/07/01 01:59:06;;;;;;;4.10;2.60;;;18.40;67.30;;;;;;4970779;28;20022;-83
2021/07/01 02:01:50;;;;;;;4.18;2.58;;;18.40;67.30;;;;;;4980371;28;20130;-81
2021/07/01 02:04:21;;;;;;;3.53;2.53;;;18.40;67.30;;;;;;4960045;28;20109;-82
2021/07/01 02:06:49;;;;;;;4.07;2.40;;;18.40;67.30;;;;;;4947997;28;20709;-82
2021/07/01 02:09:18;;;;;;;4.07;2.50;;;18.40;67.30;;;;;;4956342;28;20033;-82
2021/07/01 02:11:49;;;;;;;4.80;2.65;;;18.40;67.30;;;;;;4966918;28;20058;-82
2021/07/01 02:14:19;;;;;;;3.97;2.03;;;18.40;67.30;;;;;;4951364;28;20476;-81
2021/07/01 02:16:54;;;;;;;3.45;2.20;;;18.40;67.30;;;;;;4946907;28;20089;-82
2021/07/01 02:19:21;;;;;;;3.78;2.20;;;18.40;67.30;;;;;;4962992;28;20063;-82
2021/07/01 02:21:47;;;;;;;3.80;2.30;;;18.40;67.30;;;;;;4969666;28;20069;-82
2021/07/01 02:24:14;;;;;;;4.03;2.17;;;18.40;67.30;;;;;;4964332;28;20037;-82
2021/07/01 02:26:40;;;;;;;3.30;2.00;;;18.40;67.30;;;;;;4926887;28;20023;-83
2021/07/01 02:29:06;;;;;;;3.85;2.10;;;18.40;67.30;;;;;;4928947;28;20058;-83
2021/07/01 02:31:33;;;;;;;2.90;2.15;;;18.40;67.30;;;;;;4944625;28;20030;-83
2021/07/01 02:33:59;;;;;;;3.22;2.10;;;18.40;67.30;;;;;;4956866;28;20039;-83
2021/07/01 02:36:47;;;;;;;2.80;2.00;;;18.40;67.30;;;;;;4967745;28;20042;-83
2021/07/01 02:39:43;;;;;;;3.75;2.28;;;18.30;67.30;;;;;;4917666;29;20044;-82
2021/07/01 02:42:09;;;;;;;2.45;1.83;;;18.30;67.30;;;;;;4960561;28;20034;-83
2021/07/01 02:44:38;;;;;;;3.75;1.95;;;18.30;67.30;;;;;;4953884;28;20030;-83
2021/07/01 02:47:22;;;;;;;2.13;1.67;;;18.30;67.30;;;;;;4950901;28;20061;-82
2021/07/01 02:49:48;;;;;;;2.83;1.98;;;18.30;67.30;;;;;;4929508;28;20058;-82
2021/07/01 02:52:19;;;;;;;2.78;1.85;;;18.30;67.30;;;;;;4937556;28;20047;-81
2021/07/01 02:54:45;;;;;;;3.78;2.22;;;18.30;67.30;;;;;;4977105;28;20038;-84
2021/07/01 02:57:11;;;;;;;3.20;1.95;;;18.30;67.40;;;;;;4981780;28;20082;-84
2021/07/01 02:59:42;;;;;;;4.07;2.10;;;18.30;67.40;;;;;;4950805;28;20057;-83
2021/07/01 03:02:14;;;;;;;3.30;1.85;;;18.30;67.40;;;;;;4946661;28;20030;-83
2021/07/01 03:05:02;;;;;;;2.85;1.75;;;18.30;67.40;;;;;;4969441;28;20463;-83
2021/07/01 03:07:28;;;;;;;4.00;1.88;;;18.30;67.40;;;;;;4981138;28;20046;-81
2021/07/01 03:09:54;;;;;;;2.95;2.10;;;18.30;67.40;;;;;;4945665;29;20121;-83
2021/07/01 03:12:20;;;;;;;2.83;1.98;;;18.30;67.40;;;;;;4927303;29;20127;-82
2021/07/01 03:14:46;;;;;;;4.25;2.15;;;18.30;67.40;;;;;;4950468;28;20543;-81
2021/07/01 03:17:11;;;;;;;2.75;1.85;;;18.30;67.40;;;;;;4965235;28;20027;-83
2021/07/01 03:19:37;;;;;;;3.63;2.10;;;18.30;67.40;;;;;;4966053;28;20463;-82
2021/07/01 03:22:22;;;;;;;3.38;2.10;;;18.20;67.40;;;;;;4964612;28;20038;-83
2021/07/01 03:24:48;;;;;;;2.75;1.88;;;18.20;68.00;;;;;;4965322;28;20041;-82
2021/07/01 03:27:14;;;;;;;3.25;2.17;;;18.20;67.40;;;;;;4960225;28;20487;-81
2021/07/01 03:29:39;;;;;;;3.17;1.85;;;18.20;67.50;;;;;;4945424;28;20031;-82
2021/07/01 03:32:11;;;;;;;3.83;2.13;;;18.20;67.50;;;;;;4950302;28;20531;-83
2021/07/01 03:34:37;;;;;;;2.90;1.83;;;18.20;67.40;;;;;;4961620;28;20074;-83
2021/07/01 03:37:03;;;;;;;3.80;1.98;;;18.20;67.40;;;;;;4950258;28;20081;-83
2021/07/01 03:39:52;;;;;;;3.38;1.75;;;18.20;67.50;;;;;;4954769;28;20031;-83
2021/07/01 03:42:25;;;;;;;2.67;1.90;;;18.20;67.50;;;;;;4979328;28;20035;-83
2021/07/01 03:44:51;;;;;;;2.65;2.03;;;18.20;67.50;;;;;;4930290;28;20097;-84
2021/07/01 03:47:17;;;;;;;4.28;2.13;;;18.20;67.50;;;;;;4956867;28;20039;-83
2021/07/01 03:49:44;;;;;;;2.58;1.80;;;18.20;67.50;;;;;;4964217;28;20117;-84
2021/07/01 03:52:29;;;;;;;3.08;1.98;;;18.20;67.50;;;;;;4947796;28;20074;-84
2021/07/01 03:54:57;;;;;;;2.70;1.95;;;18.20;67.50;;;;;;4939095;29;20039;-83
2021/07/01 03:57:23;;;;;;;4.50;2.08;;;18.20;67.50;;;;;;4951577;28;20030;-84
2021/07/01 03:59:50;;;;;;;3.33;1.90;;;18.10;67.50;;;;;;4968719;28;20061;-84
2021/07/01 04:02:46;;;;;;;2.47;1.65;;;18.10;67.50;;;;;;4965038;28;20035;-82
2021/07/01 04:05:18;;;;;;;3.20;2.00;;;18.10;67.40;;;;;;4944818;28;20035;-82
2021/07/01 04:07:44;;;;;;;3.05;2.00;;;18.10;67.50;;;;;;4941420;28;20086;-80
2021/07/01 04:10:15;;;;;;;4.18;1.80;;;18.10;67.50;;;;;;4933574;28;20027;-87
2021/07/01 04:12:47;;;;;;;2.90;1.95;;;18.10;67.60;;;;;;4940594;28;20126;-83
2021/07/01 04:15:31;;;;;;;3.15;2.15;;;18.10;67.50;;;;;;4976410;28;20407;-82
2021/07/01 04:18:19;;;;;;;2.58;1.85;;;18.10;67.50;;;;;;4943200;28;20093;-82
2021/07/01 04:21:03;;;;;;;2.80;1.75;;;18.10;67.50;;;;;;4970673;28;20451;-83
2021/07/01 04:23:47;;;;;;;2.67;2.17;;;18.10;67.50;;;;;;4967261;28;20041;-82
2021/07/01 04:26:42;;;;;;;2.97;2.00;;;18.10;67.60;;;;;;4878675;28;20038;-82
2021/07/01 04:29:14;;;;;;;2.85;1.92;;;18.10;67.50;;;;;;4941918;28;20428;-82
2021/07/01 04:31:41;;;;;;;2.92;1.95;;;18.00;67.50;;;;;;4955455;28;20038;-82
2021/07/01 04:34:07;;;;;;;2.90;2.05;;;18.00;67.60;;;;;;4934630;28;20125;-83
2021/07/01 04:36:34;;;;;;;3.30;2.08;;;18.00;67.70;;;;;;4941502;28;20038;-84
2021/07/01 04:39:04;;;;;;;3.17;1.80;;;18.00;67.70;;;;;;4952599;28;20057;-84
2021/07/01 04:41:37;;;;;;;3.67;2.37;;;18.00;67.70;;;;;;4963026;28;20489;-82
2021/07/01 04:44:04;;;;;;;2.20;1.80;;;18.00;67.60;;;;;;4966866;28;20296;-84
2021/07/01 04:46:30;;;;;;;3.80;1.90;;;18.00;67.60;;;;;;4917509;28;20038;-84
2021/07/01 04:48:58;;;;;;;2.67;1.90;;;18.00;67.70;;;;;;4944410;28;20038;-80
2021/07/01 04:51:24;;;;;;;3.47;2.28;;;18.00;67.70;;;;;;4935226;29;20055;-80
2021/07/01 04:54:28;;;;;;;5.28;2.65;;;18.00;67.70;;;;;;4888923;29;20057;-80
2021/07/01 04:57:12;;;;;;;3.00;1.98;;;18.00;67.60;;;;;;4882934;29;20078;-81
2021/07/01 04:59:38;;;;;;;3.40;2.25;;;18.00;67.60;;;;;;4916964;28;20043;-81
2021/07/01 05:02:24;;;;;;;3.15;2.17;;;18.00;67.70;;;;;;4946300;28;20558;-81
2021/07/01 05:05:06;;;;;;;2.40;1.95;;;18.00;67.70;;;;;;4923177;29;20039;-80
2021/07/01 05:07:32;;;;;;;4.05;2.38;;;18.00;67.70;;;;;;4930918;28;20054;-81
2021/07/01 05:09:58;;;;;;;3.35;2.17;;;18.00;67.70;;;;;;4955870;28;20078;-87
2021/07/01 05:13:02;;;;;;;2.40;1.90;;;18.00;67.80;;;;;;4939850;28;20039;-85
2021/07/01 05:15:28;;;;;;;3.55;2.00;;;18.00;67.70;;;;;;4937502;29;20659;-89
2021/07/01 05:18:04;;;;;;;3.05;2.10;;;18.00;67.70;;;;;;4916516;29;20559;-85
2021/07/01 05:20:30;;;;;;;2.10;1.85;;;18.00;67.80;;;;;;4929045;29;20059;-87
2021/07/01 05:23:16;;;;;;;3.78;2.50;;;18.00;67.80;;;;;;4910176;28;20037;-87
2021/07/01 05:26:08;;;;;;;3.88;1.98;;;17.90;67.70;;;;;;4940813;28;20035;-86
2021/07/01 05:28:52;;;;;;;3.28;2.05;;;18.00;67.80;;;;;;4967231;28;20041;-83
2021/07/01 05:31:36;;;;;;;4.38;2.10;;;17.90;67.70;;;;;;4951423;29;20054;-86
2021/07/01 05:34:21;;;;;;;4.78;2.65;;;17.90;67.70;;;;;;4935650;28;20054;-86
2021/07/01 05:36:47;;;;;;;2.97;1.80;;;17.90;67.70;;;;;;4928537;29;20027;-85
2021/07/01 05:39:16;;;;;;;2.75;2.03;;;17.90;67.80;;;;;;4921257;28;20038;-86
2021/07/01 05:41:45;;;;;;;4.15;2.45;;;17.90;67.80;;;;;;4945136;29;20035;-85
2021/07/01 05:44:11;;;;;;;3.67;2.38;;;17.90;67.80;;;;;;4936074;28;20144;-85
2021/07/01 05:46:46;;;;;;;3.78;2.45;;;17.90;67.80;;;;;;4953860;28;20038;-85
2021/07/01 05:49:13;;;;;;;3.13;2.17;;;17.90;67.80;;;;;;4950801;28;20027;-85
2021/07/01 05:51:39;;;;;;;3.25;2.00;;;17.90;67.80;;;;;;4971876;28;20054;-85
2021/07/01 05:56:36;;;;;;;2.97;2.10;;;17.90;67.80;;;;;;4968155;28;20055;-86
2021/07/01 05:59:07;;;;;;;3.00;1.95;;;17.90;67.90;;;;;;4952500;28;20031;-86
2021/07/01 06:01:34;;;;;;;6.00;2.70;;;17.90;67.90;;;;;;4967949;28;20027;-85
2021/07/01 06:04:03;;;;;;;3.78;2.20;;;17.90;67.90;;;;;;4967855;28;20027;-84
2021/07/01 06:06:53;;;;;;;4.55;2.28;;;17.90;67.90;;;;;;4974246;28;20057;-86
2021/07/01 06:09:28;;;;;;;4.82;2.45;;;17.90;67.90;;;;;;4940211;28;20031;-83
2021/07/01 06:11:59;;;;;;;3.30;2.15;;;17.90;67.90;;;;;;4986958;28;20041;-85
2021/07/01 06:14:27;;;;;;;3.28;2.28;;;17.90;68.00;;;;;;4971210;28;20040;-85
2021/07/01 06:17:02;;;;;;;3.45;2.33;;;17.90;68.00;;;;;;4971320;28;20022;-86
2021/07/01 06:19:27;;;;;;;3.00;1.90;;;17.90;68.00;;;;;;4987135;28;20030;-85
2021/07/01 06:21:53;;;;;;;4.38;2.45;;;17.90;67.90;;;;;;4967726;28;20045;-85
2021/07/01 06:24:19;;;;;;;3.42;2.13;;;17.90;67.90;;;;;;4967841;28;20041;-86
2021/07/01 06:26:47;;;;;;;5.18;2.60;;;17.90;68.00;;;;;;4968529;28;20090;-84
2021/07/01 06:29:14;;;;;;;3.47;2.22;;;17.90;68.00;;;;;;4978315;28;20064;-85
2021/07/01 06:31:40;;;;;;;3.50;2.28;;;17.90;68.00;;;;;;4964610;28;20039;-85
2021/07/01 06:34:06;;;;;;;3.17;2.13;;;17.90;68.00;;;;;;4969384;28;20105;-85
2021/07/01 06:36:40;;;;;;;4.22;2.47;;;17.90;68.00;;;;;;4987868;28;20034;-84
2021/07/01 06:39:27;;;;;;;4.72;2.33;;;17.90;68.10;;;;;;4978577;28;20090;-85
2021/07/01 06:42:12;;;;;;;3.67;2.30;;;17.90;68.00;;;;;;4972090;28;20043;-85
2021/07/01 06:44:57;;;;;;;3.25;2.00;;;17.90;68.00;;;;;;4973313;28;20065;-85
2021/07/01 06:47:46;;;;;;;;;;;17.90;68.00;;;;;;4977232;28;20451;-84
2021/07/01 06:50:31;;;;;;;2.15;1.60;;;17.80;67.80;;;;;;4969257;28;20136;-85
2021/07/01 06:53:16;;;;;;;3.60;2.15;;;17.80;67.80;;;;;;4974927;28;20142;-84
2021/07/01 06:56:02;;;;;;;3.50;2.10;;;17.80;67.90;;;;;;4965009;28;20117;-85
2021/07/01 06:58:35;;;;;;;3.50;2.30;;;17.80;68.00;;;;;;4959016;28;20035;-85
2021/07/01 07:01:01;;;;;;;3.33;2.03;;;17.80;68.10;;;;;;4950650;28;20502;-84
2021/07/01 07:03:29;;;;;;;3.83;2.25;;;17.80;68.10;;;;;;4967228;28;20027;-85
2021/07/01 07:05:55;;;;;;;4.05;2.35;;;17.80;68.10;;;;;;4981117;28;20041;-84
2021/07/01 07:08:22;;;;;;;3.38;2.03;;;17.90;68.80;;;;;;4970012;28;20029;-86
2021/07/01 07:10:48;;;;;;;2.97;2.00;;;17.80;68.10;;;;;;4984385;28;20034;-85
2021/07/01 07:13:15;;;;;;;3.05;2.10;;;17.90;68.20;;;;;;4965750;28;20061;-85
2021/07/01 07:15:43;;;;;;;4.32;2.67;;;17.90;68.20;;;;;;4968039;28;20072;-85
2021/07/01 07:18:19;;;;;;;3.70;2.30;;;17.90;68.20;;;;;;4966610;28;20032;-85
2021/07/01 07:20:56;;;;;;;4.05;2.33;;;17.80;68.20;;;;;;4968612;28;20038;-85
2021/07/01 07:23:36;;;;;;;3.05;2.08;;;17.90;68.20;;;;;;4969556;28;20034;-85
2021/07/01 07:26:28;;;;;;;3.30;2.33;;;17.90;68.30;;;;;;4974406;28;20074;-86
2021/07/01 07:28:55;;;;;;;2.42;1.90;;;17.90;68.30;;;;;;4956272;28;20133;-85
2021/07/01 07:31:33;;;;;;;2.63;1.95;;;17.90;68.10;;;;;;4969616;28;20033;-84
2021/07/01 07:34:04;;;;;;;4.03;2.67;;;17.90;68.20;;;;;;4961442;28;20468;-84
2021/07/01 07:36:30;;;;;;;4.07;2.38;;;17.90;68.20;;;;;;4980961;28;20232;-85
2021/07/01 07:38:56;;;;;;;4.45;2.50;;;17.90;68.10;;;;;;4983738;28;20047;-86
2021/07/01 07:41:23;;;;;;;3.92;2.08;;;17.90;68.10;;;;;;4969554;28;20383;-88
2021/07/01 07:43:51;;;;;;;3.35;2.35;;;17.90;68.10;;;;;;4952668;28;20026;-84
2021/07/01 07:46:19;;;;;;;3.65;2.30;;;17.90;68.20;;;;;;4948549;28;20062;-88
2021/07/01 07:48:45;;;;;;;3.15;2.45;;;17.90;68.20;;;;;;4942324;28;20062;-85
2021/07/01 07:51:15;;;;;;;3.17;2.33;;;18.00;68.20;;;;;;4958374;28;20034;-90
2021/07/01 07:53:42;;;;;;;3.47;2.15;;;18.00;68.20;;;;;;4984645;28;20035;-90
2021/07/01 07:56:10;;;;;;;3.47;2.40;;;18.00;68.20;;;;;;4984700;28;20034;-88
2021/07/01 07:58:46;;;;;;;3.38;2.42;;;18.00;68.20;;;;;;4950156;28;20026;-84
2021/07/01 08:01:13;;;;;;;2.90;2.05;;;18.00;68.30;;;;;;4933185;28;20068;-83
2021/07/01 08:03:41;;;;;;;3.53;2.33;;;18.00;68.10;;;;;;4965372;28;20551;-85
2021/07/01 08:06:09;;;;;;;2.88;2.00;;;18.00;68.20;;;;;;4982158;28;20035;-94
2021/07/01 08:08:43;;;;;;;3.20;2.20;;;18.00;68.20;;;;;;4967750;28;20031;-90
2021/07/01 08:11:10;;;;;;;4.45;2.63;;;18.00;68.20;;;;;;4977048;28;20058;-91
2021/07/01 08:13:38;;;;;;;3.35;2.22;;;18.00;68.10;;;;;;4967572;28;20022;-92
2021/07/01 08:16:05;;;;;;;3.58;2.45;;;18.00;68.10;;;;;;4946430;29;20448;-93
2021/07/01 08:18:40;;;;;;;3.75;2.58;;;18.00;68.10;;;;;;4980148;28;20030;-91
2021/07/01 08:21:08;;;;;;;3.15;2.15;;;18.00;68.10;;;;;;4964259;28;20460;-92
2021/07/01 08:23:35;;;;;;;3.72;2.50;;;18.00;68.10;;;;;;4946247;29;20059;-90
2021/07/01 08:26:02;;;;;;;4.93;2.65;;;18.00;68.10;;;;;;4973332;28;20085;-93
2021/07/01 08:28:29;;;;;;;3.97;2.70;;;18.00;68.10;;;;;;4962685;28;20027;-91
2021/07/01 08:30:57;;;;;;;4.30;2.60;;;18.00;68.10;;;;;;4973366;28;20031;-86
2021/07/01 08:33:31;;;;;;;2.92;2.30;;;18.00;68.10;;;;;;4952774;28;20446;-90
2021/07/01 08:35:59;;;;;;;4.65;2.30;;;18.00;68.10;;;;;;4957007;28;20038;-90
2021/07/01 08:38:25;;;;;;;3.92;2.45;;;18.10;68.20;;;;;;4965527;28;20029;-92
2021/07/01 08:40:59;;;;;;;3.63;2.60;;;18.10;68.10;;;;;;4945786;29;20043;-90
2021/07/01 08:43:40;;;;;;;3.40;2.30;;;18.10;68.20;;;;;;4962064;28;20101;-91
2021/07/01 08:46:13;;;;;;;2.92;2.30;;;18.10;68.20;;;;;;4967344;28;20034;-93
2021/07/01 08:49:03;;;;;;;3.53;2.30;;;18.10;68.10;;;;;;4945337;29;20038;-91
2021/07/01 08:51:39;;;;;;;3.30;2.20;;;18.10;68.20;;;;;;4969654;28;20100;-91
2021/07/01 08:54:26;;;;;;;3.90;2.38;;;18.10;68.10;;;;;;4986330;28;20038;-87
2021/07/01 08:56:54;;;;;;;4.05;2.38;;;18.10;68.20;;;;;;4957751;28;20026;-89
2021/07/01 08:59:22;;;;;;;4.60;2.70;;;18.10;68.10;;;;;;4966295;28;20034;-90
2021/07/01 09:02:02;;;;;;;4.13;2.38;;;18.10;68.10;;;;;;4981164;28;20019;-90
2021/07/01 09:04:48;;;;;;;4.03;2.53;;;18.10;68.20;;;;;;4984481;28;20046;-90
2021/07/01 09:07:21;;;;;;;3.10;2.20;;;18.10;68.20;;;;;;4971644;28;20417;-92
2021/07/01 09:10:00;;;;;;;5.13;2.40;;;18.10;68.20;;;;;;4970704;28;20093;-90
2021/07/01 09:12:27;;;;;;;2.78;2.30;;;18.10;68.10;;;;;;4984063;28;20066;-89
2021/07/01 09:14:59;;;;;;;3.20;2.15;;;18.10;68.10;;;;;;4944924;29;20463;-92
2021/07/01 09:17:27;;;;;;;4.18;2.50;;;18.10;68.10;;;;;;4945113;28;20067;-87
2021/07/01 09:19:55;;;;;;;3.10;2.15;;;18.10;68.10;;;;;;4948303;28;20035;-88
2021/07/01 09:22:23;;;;;;;3.88;2.42;;;18.10;68.10;;;;;;4948639;28;20027;-90
2021/07/01 09:24:50;;;;;;;4.38;2.65;;;18.10;68.80;;;;;;4947057;28;20506;-89
2021/07/01 09:27:17;;;;;;;3.78;2.67;;;18.20;68.10;;;;;;4939074;28;20034;-90
2021/07/01 09:29:45;;;;;;;3.47;2.35;;;18.10;68.10;;;;;;4967437;28;20506;-83
2021/07/01 09:32:12;;;;;;;3.63;2.60;;;18.20;68.10;;;;;;4959257;28;20034;-83
2021/07/01 09:34:40;;;;;;;3.55;2.60;;;18.20;68.10;;;;;;4984286;28;20042;-84
2021/07/01 09:37:06;;;;;;;4.13;2.35;;;18.20;68.10;;;;;;4963820;28;20116;-84
2021/07/01 09:39:33;;;;;;;4.40;2.75;;;18.20;68.10;;;;;;4945243;28;20059;-83
2021/07/01 09:42:01;;;;;;;3.95;2.42;;;18.20;68.10;;;;;;4936694;28;20028;-85
2021/07/01 09:44:29;;;;;;;3.67;2.47;;;18.20;68.10;;;;;;4960711;28;20071;-83
2021/07/01 09:47:00;;;;;;;5.15;2.90;;;18.20;68.10;;;;;;4964740;28;20031;-81
2021/07/01 09:49:34;;;;;;;4.50;2.55;;;18.20;68.10;;;;;;4935818;29;20083;-82
2021/07/01 09:52:06;;;;;;;7.03;2.67;;;18.30;68.20;;;;;;4943193;28;20119;-81
2021/07/01 09:54:34;;;;;;;4.45;2.78;;;18.30;68.20;;;;;;4956214;28;20085;-80
2021/07/01 09:57:05;;;;;;;4.75;2.78;;;18.30;68.80;;;;;;4980908;28;20066;-85
2021/07/01 09:59:41;;;;;;;5.90;3.03;;;18.30;68.10;;;;;;4966640;28;20403;-81
2021/07/01 10:02:15;;;;;;;5.13;2.88;;;18.30;68.80;;;;;;4983539;28;20073;-81
2021/07/01 10:04:45;;;;;;;4.22;2.47;;;18.30;68.20;;;;;;4950069;28;20034;-80
2021/07/01 10:07:14;;;;;;;5.10;3.00;;;18.30;68.10;;;;;;4967653;28;20042;-79
2021/07/01 10:09:40;;;;;;;4.55;2.75;;;18.30;68.10;;;;;;4965619;28;20046;-78
2021/07/01 10:12:13;;;;;;;4.80;3.08;;;18.30;68.10;;;;;;4986125;28;20038;-76
2021/07/01 10:14:40;;;;;;;4.05;2.90;;;18.30;68.20;;;;;;4960605;28;20121;-75
2021/07/01 10:17:11;;;;;;;4.13;3.05;;;18.30;68.10;;;;;;4982706;28;20046;-77
2021/07/01 10:19:37;;;;;;;5.50;3.15;;;18.30;68.10;;;;;;4949744;28;20065;-78
2021/07/01 10:22:09;;;;;;;5.00;2.70;;;18.30;68.10;;;;;;4952550;28;20042;-78
2021/07/01 10:24:51;;;;;;;3.50;2.58;;;18.30;68.10;;;;;;4936842;28;20391;-79
2021/07/01 10:27:30;;;;;;;4.85;2.90;;;18.30;68.20;;;;;;4976356;28;20538;-78
2021/07/01 10:29:59;;;;;;;5.95;2.97;;;18.30;68.10;;;;;;4958769;28;20129;-76
2021/07/01 10:32:39;;;;;;;5.05;2.80;;;18.30;68.10;;;;;;4962813;28;20023;-77
2021/07/01 10:35:18;;;;;;;4.75;2.90;;;18.40;68.20;;;;;;4966064;28;20030;-76
2021/07/01 10:37:56;;;;;;;5.32;2.88;;;18.40;68.20;;;;;;4949320;28;20427;-77
2021/07/01 10:40:22;;;;;;;5.35;2.75;;;18.40;68.20;;;;;;4969989;28;20356;-77
2021/07/01 10:42:50;;;;;;;3.67;2.47;;;18.30;68.00;;;;;;4986420;28;20077;-78
2021/07/01 10:45:17;;;;;;;5.18;2.90;;;18.40;68.10;;;;;;4977605;28;20039;-80
2021/07/01 10:47:43;;;;;;;4.78;2.90;;;18.40;68.10;;;;;;4969095;28;20101;-86
2021/07/01 10:50:18;;;;;;;4.60;2.85;;;18.40;68.10;;;;;;4967940;28;20030;-84
2021/07/01 10:52:45;;;;;;;4.55;3.10;;;18.40;68.20;;;;;;4965683;28;20061;-83
2021/07/01 10:55:12;;;;;;;5.75;3.20;;;18.40;68.80;;;;;;4966194;28;20070;-83
2021/07/01 10:58:00;;;;;;;5.32;3.17;;;18.40;68.10;;;;;;4986025;28;20422;-84
2021/07/01 11:00:40;;;;;;;4.80;3.10;;;18.40;68.20;;;;;;4945764;28;20033;-83
2021/07/01 11:03:11;;;;;;;4.47;3.00;;;18.40;68.20;;;;;;4963805;28;20031;-84
2021/07/01 11:05:37;;;;;;;5.50;3.10;;;18.40;68.10;;;;;;4987546;28;20038;-83
2021/07/01 11:08:04;;;;;;;5.97;2.90;;;18.40;68.10;;;;;;4969160;28;20463;-83
2021/07/01 11:10:35;;;;;;;4.97;3.03;;;18.40;68.10;;;;;;4968901;28;20027;-83
2021/07/01 11:13:10;;;;;;;4.97;3.30;;;18.40;68.20;;;;;;4968930;28;20480;-83
2021/07/01 11:16:08;;;;;;;6.60;3.35;;;18.40;68.20;;;;;;4960128;28;20045;-84
2021/07/01 11:18:44;;;;;;;4.68;2.95;;;18.50;68.30;;;;;;4983872;28;20042;-83
2021/07/01 11:21:19;;;;;;;4.53;2.75;;;18.50;68.20;;;;;;4968664;28;20019;-82
2021/07/01 11:23:48;;;;;;;4.63;2.97;;;18.50;68.20;;;;;;4984160;28;20395;-84
2021/07/01 11:26:29;;;;;;;4.47;3.22;;;18.50;68.20;;;;;;4950580;28;20396;-84
2021/07/01 11:28:57;;;;;;;4.22;2.75;;;18.50;68.40;;;;;;4967897;28;20035;-84
2021/07/01 11:31:39;;;;;;;5.22;3.13;;;18.50;68.20;;;;;;4968887;28;20387;-84
2021/07/01 11:34:06;;;;;;;5.80;3.60;;;18.50;68.40;;;;;;4983732;28;20499;-84
2021/07/01 11:36:33;;;;;;;5.10;2.97;;;18.50;68.20;;;;;;4957726;28;20031;-83
2021/07/01 11:39:12;;;;;;;4.55;3.00;;;18.50;68.20;;;;;;4964349;28;20023;-84
2021/07/01 11:41:39;;;;;;;5.30;3.35;;;18.60;68.30;;;;;;4979035;28;20034;-85
2021/07/01 11:44:06;;;;;;;5.10;2.75;;;18.50;68.20;;;;;;4950465;28;20030;-83
2021/07/01 11:46:32;;;;;;;4.60;3.10;;;18.60;68.20;;;;;;4959921;28;20050;-82
2021/07/01 11:48:58;;;;;;;4.90;3.20;;;18.60;68.20;;;;;;4954517;28;20081;-82
2021/07/01 11:51:26;;;;;;;5.40;3.47;;;18.60;68.20;;;;;;4956031;28;21679;-83
2021/07/01 11:53:52;;;;;;;4.70;3.30;;;18.60;68.20;;;;;;4965162;28;20039;-83
2021/07/01 11:56:22;;;;;;;5.88;3.50;;;18.60;68.20;;;;;;4940463;28;20179;-82
2021/07/01 11:58:48;;;;;;;5.40;3.25;;;18.60;68.30;;;;;;4933213;28;20019;-83
2021/07/01 12:01:15;;;;;;;4.85;3.15;;;18.60;68.30;;;;;;4964784;28;20102;-82
2021/07/01 12:03:41;;;;;;;5.13;3.10;;;18.60;68.30;;;;;;4922260;28;20082;-83
2021/07/01 12:06:37;;;;;;;4.68;3.20;;;18.70;68.40;;;;;;4961856;28;20039;-83
2021/07/01 12:09:03;;;;;;;5.20;3.42;;;18.70;68.50;;;;;;4949939;28;20048;-83
2021/07/01 12:11:29;;;;;;;4.82;3.25;;;18.70;68.30;;;;;;4958713;28;20081;-82
2021/07/01 12:13:55;;;;;;;5.65;3.05;;;18.70;68.30;;;;;;4941245;28;20113;-83
2021/07/01 12:16:20;;;;;;;5.63;3.30;;;18.70;68.40;;;;;;4932834;28;20033;-82
2021/07/01 12:18:57;;;;;;;4.80;3.05;;;18.80;68.40;;;;;;4946704;28;20027;-82
2021/07/01 12:21:34;;;;;;;5.03;2.80;;;18.70;68.50;;;;;;4943911;28;20027;-83
2021/07/01 12:24:01;;;;;;;5.03;3.03;;;18.80;68.50;;;;;;4929734;28;20380;-83
2021/07/01 12:26:43;;;;;;;4.35;2.88;;;18.80;68.30;;;;;;4958952;28;20030;-82
2021/07/01 12:29:12;;;;;;;4.63;2.80;;;18.80;68.50;;;;;;4938511;29;20102;-82
2021/07/01 12:31:40;;;;;;;5.75;3.20;;;18.90;69.00;;;;;;4960274;28;20026;-82
2021/07/01 12:34:18;;;;;;;5.00;2.80;;;18.90;68.40;;;;;;4945264;28;20034;-82
2021/07/01 12:36:47;;;;;;;6.90;3.25;;;18.90;68.40;;;;;;4925619;29;20130;-82
2021/07/01 12:39:14;;;;;;;5.55;3.05;;;18.90;68.30;;;;;;4944658;28;20428;-82
2021/07/01 12:41:46;;;;;;;4.28;2.90;;;18.90;68.30;;;;;;4945024;29;20035;-82
2021/07/01 12:44:25;;;;;;;4.85;3.13;;;18.90;68.40;;;;;;4947009;28;20045;-82
2021/07/01 12:46:50;;;;;;;4.88;3.33;;;19.00;68.40;;;;;;4948337;28;20109;-82
2021/07/01 12:49:17;;;;;;;5.18;3.45;;;19.00;68.30;;;;;;4963409;28;20154;-82
2021/07/01 12:51:44;;;;;;;4.75;2.90;;;19.00;68.30;;;;;;4960800;28;20047;-82
2021/07/01 12:54:22;;;;;;;4.05;2.85;;;19.00;68.30;;;;;;4961292;28;20472;-83
2021/07/01 12:56:50;;;;;;;5.18;2.72;;;19.10;68.40;;;;;;4959450;28;20042;-83
2021/07/01 12:59:18;;;;;;;4.85;2.85;;;19.10;68.20;;;;;;4962712;28;20031;-82
2021/07/01 13:01:44;;;;;;;4.18;2.88;;;19.10;68.30;;;;;;4932472;28;20539;-82
2021/07/01 13:04:10;;;;;;;4.20;2.72;;;19.20;68.20;;;;;;4948231;28;20062;-82
2021/07/01 13:06:40;;;;;;;4.47;2.70;;;19.20;68.20;;;;;;4916076;28;20036;-83
2021/07/01 13:09:07;;;;;;;4.50;2.78;;;19.20;68.30;;;;;;4965093;28;20027;-83
2021/07/01 13:11:43;;;;;;;4.45;2.97;;;19.30;68.20;;;;;;4938990;28;20030;-83